Weather at Garner Field

Public forecast

Using degrees Fahrenheit for public forecast. Weather courtesy of forecast.io.

Closest aviation weather report (METAR) to Garner Field

Closest report is Joint Base Andrews, 11.1 nm (20.6 km) NW.

2024/05/29 22:55 (retrieved 1 hour ago)

KADW 292255Z 16005KT 10SM SCT080 BKN120 16/15 A2990 RMK AO2A SLP131 T01620145

Closest aviation forecast (TAF) to Garner Field

Forecast is more than 6 hours old.

Closest forecast is Joint Base Andrews, 11.1 nm (20.6 km) NW.

2024/05/29 17:41 Ammendment (retrieved 6 hours ago)

TAF AMD KADW 291725Z 2917/3023 27009KT 9999 VCTS FEW060CB BKN120 QNH2990INS TEMPO 2918/2923 24020G35KT 3200 TSRAGR BKN030CB OVC080 BECMG 2923/2924 28009KT 8000 -SHRA VCTS FEW030CB BKN040 OVC100 QNH2988INS BECMG 3002/3003 29009KT 9999 NSW SCT050 QNH2990INS BECMG 3009/3010 34012KT 9999 FEW015 FEW050 QNH2995INS BECMG 3011/3012 34012G18KT 9999 FEW030 QNH3000INS TX26/2919Z TN14/3009Z